createdAt,value
2023-05-05T00:00:19.487Z,95366.00
2023-05-05T00:01:19.506Z,95368.00
2023-05-05T00:02:19.608Z,95368.00
2023-05-05T00:03:19.693Z,95368.00
2023-05-05T00:04:19.681Z,95366.00
2023-05-05T00:05:19.695Z,95366.00
2023-05-05T00:06:19.736Z,95366.00
2023-05-05T00:07:19.778Z,95366.00
2023-05-05T00:08:19.814Z,95366.00
2023-05-05T00:09:19.868Z,95366.00
2023-05-05T00:10:19.894Z,95366.00
2023-05-05T00:11:19.931Z,95364.00
2023-05-05T00:12:19.996Z,95364.00
2023-05-05T00:13:20.041Z,95362.00
2023-05-05T00:14:20.065Z,95366.00
2023-05-05T00:15:20.139Z,95366.00
2023-05-05T00:16:20.282Z,95364.00
2023-05-05T00:17:20.252Z,95364.00
2023-05-05T00:18:20.291Z,95364.00
2023-05-05T00:19:20.370Z,95366.00
2023-05-05T00:20:20.391Z,95366.00
2023-05-05T00:21:20.457Z,95366.00
2023-05-05T00:22:20.490Z,95366.00
2023-05-05T00:23:20.560Z,95366.00
2023-05-05T00:24:20.588Z,95366.00
2023-05-05T00:25:20.631Z,95364.00
2023-05-05T00:26:20.698Z,95366.00
2023-05-05T00:27:20.733Z,95364.00
2023-05-05T00:28:20.785Z,95364.00
2023-05-05T00:29:20.850Z,95366.00
2023-05-05T00:30:20.875Z,95362.00
2023-05-05T00:31:20.963Z,95364.00
2023-05-05T00:32:20.978Z,95368.00
2023-05-05T00:33:20.998Z,95366.00
2023-05-05T00:34:21.070Z,95368.00
2023-05-05T00:35:21.116Z,95370.00
2023-05-05T00:36:21.132Z,95370.00
2023-05-05T00:37:21.204Z,95372.00
2023-05-05T00:38:21.238Z,95372.00
2023-05-05T00:39:21.296Z,95370.00
2023-05-05T00:40:21.317Z,95370.00
2023-05-05T00:41:21.360Z,95368.00
2023-05-05T00:42:21.438Z,95368.00
2023-05-05T00:43:21.483Z,95368.00
2023-05-05T00:44:21.521Z,95374.00
2023-05-05T00:45:21.577Z,95374.00
2023-05-05T00:46:21.662Z,95374.00
2023-05-05T00:47:21.717Z,95374.00
2023-05-05T00:48:21.754Z,95376.00
2023-05-05T00:49:21.832Z,95374.00
2023-05-05T00:50:21.869Z,95372.00
2023-05-05T00:51:21.897Z,95372.00
2023-05-05T00:52:21.940Z,95374.00
2023-05-05T00:53:21.996Z,95372.00
2023-05-05T00:54:22.042Z,95372.00
2023-05-05T00:55:22.066Z,95374.00
2023-05-05T00:56:22.173Z,95372.00
2023-05-05T00:57:22.164Z,95370.00
2023-05-05T00:58:22.216Z,95370.00
2023-05-05T00:59:22.245Z,95372.00
2023-05-05T01:00:22.287Z,95374.00
2023-05-05T01:01:22.370Z,95372.00
2023-05-05T01:02:22.391Z,95374.00
2023-05-05T01:03:22.530Z,95374.00
2023-05-05T01:04:22.497Z,95374.00
2023-05-05T01:05:22.527Z,95368.00
2023-05-05T01:06:22.590Z,95368.00
2023-05-05T01:07:22.671Z,95368.00
2023-05-05T01:08:22.693Z,95368.00
2023-05-05T01:09:22.774Z,95366.00
2023-05-05T01:10:23.001Z,95366.00
2023-05-05T01:11:22.834Z,95366.00
2023-05-05T01:12:22.921Z,95368.00
2023-05-05T01:13:22.929Z,95368.00
2023-05-05T01:14:22.968Z,95366.00
2023-05-05T01:15:23.038Z,95368.00
2023-05-05T01:16:23.098Z,95368.00
2023-05-05T01:17:23.180Z,95366.00
2023-05-05T01:18:23.204Z,95366.00
2023-05-05T01:19:23.269Z,95368.00
2023-05-05T01:20:23.293Z,95366.00
2023-05-05T01:21:23.386Z,95366.00
2023-05-05T01:22:23.402Z,95366.00
2023-05-05T01:23:23.440Z,95366.00
2023-05-05T01:24:23.517Z,95366.00
2023-05-05T01:25:23.569Z,95368.00
2023-05-05T01:26:23.601Z,95366.00
2023-05-05T01:27:23.637Z,95368.00
2023-05-05T01:28:23.687Z,95370.00
2023-05-05T01:29:23.749Z,95370.00
2023-05-05T01:30:23.763Z,95374.00
2023-05-05T01:31:23.891Z,95372.00
2023-05-05T01:32:23.948Z,95372.00
2023-05-05T01:33:23.981Z,95372.00
2023-05-05T01:34:24.045Z,95374.00
2023-05-05T01:35:24.100Z,95376.00
2023-05-05T01:36:24.159Z,95372.00
2023-05-05T01:37:24.226Z,95378.00
2023-05-05T01:38:24.285Z,95372.00
2023-05-05T01:39:24.314Z,95372.00
2023-05-05T01:40:24.387Z,95374.00
2023-05-05T01:41:24.446Z,95376.00
2023-05-05T01:42:24.473Z,95374.00
2023-05-05T01:43:24.538Z,95376.00
2023-05-05T01:44:24.614Z,95378.00
2023-05-05T01:45:24.640Z,95376.00
2023-05-05T01:46:24.733Z,95376.00
2023-05-05T01:47:24.824Z,95374.00
2023-05-05T01:48:24.866Z,95380.00
2023-05-05T01:49:24.889Z,95378.00
2023-05-05T01:50:24.938Z,95376.00
2023-05-05T01:51:24.994Z,95376.00
2023-05-05T01:52:25.061Z,95376.00
2023-05-05T01:53:25.120Z,95374.00
2023-05-05T01:54:25.184Z,95376.00
2023-05-05T01:55:25.230Z,95376.00
2023-05-05T01:56:25.245Z,95376.00
2023-05-05T01:57:25.338Z,95378.00
2023-05-05T01:58:25.379Z,95382.00
2023-05-05T01:59:25.385Z,95380.00
2023-05-05T02:00:25.474Z,95382.00
2023-05-05T02:01:25.576Z,95382.00
2023-05-05T02:02:25.652Z,95384.00
2023-05-05T02:03:25.646Z,95382.00
2023-05-05T02:04:25.693Z,95382.00
2023-05-05T02:05:25.743Z,95382.00
2023-05-05T02:06:25.810Z,95380.00
2023-05-05T02:07:25.849Z,95382.00
2023-05-05T02:08:25.899Z,95382.00
2023-05-05T02:09:25.936Z,95384.00
2023-05-05T02:10:26.004Z,95386.00
2023-05-05T02:11:26.090Z,95384.00
2023-05-05T02:12:26.123Z,95382.00
2023-05-05T02:13:26.267Z,95384.00
2023-05-05T02:14:26.240Z,95386.00
2023-05-05T02:15:26.321Z,95386.00
2023-05-05T02:16:26.387Z,95388.00
2023-05-05T02:17:26.478Z,95388.00
2023-05-05T02:18:26.592Z,95390.00
2023-05-05T02:19:26.579Z,95386.00
2023-05-05T02:20:26.661Z,95388.00
2023-05-05T02:21:26.715Z,95392.00
2023-05-05T02:22:26.782Z,95390.00
2023-05-05T02:23:26.838Z,95390.00
2023-05-05T02:24:26.876Z,95390.00
2023-05-05T02:25:26.953Z,95390.00
2023-05-05T02:26:26.999Z,95390.00
2023-05-05T02:27:27.067Z,95392.00
2023-05-05T02:28:27.117Z,95390.00
2023-05-05T02:29:27.196Z,95394.00
2023-05-05T02:30:27.252Z,95394.00
2023-05-05T02:31:27.458Z,95396.00
2023-05-05T02:32:27.361Z,95392.00
2023-05-05T02:33:27.430Z,95392.00
2023-05-05T02:34:27.470Z,95392.00
2023-05-05T02:35:27.511Z,95392.00
2023-05-05T02:36:27.593Z,95392.00
2023-05-05T02:37:27.663Z,95390.00
2023-05-05T02:38:27.701Z,95392.00
2023-05-05T02:39:27.785Z,95398.00
2023-05-05T02:40:27.844Z,95398.00
2023-05-05T02:41:27.928Z,95398.00
2023-05-05T02:42:27.961Z,95396.00
2023-05-05T02:43:28.030Z,95396.00
2023-05-05T02:44:28.095Z,95392.00
2023-05-05T02:45:28.123Z,95398.00
2023-05-05T02:46:28.254Z,95396.00
2023-05-05T02:47:28.290Z,95396.00
2023-05-05T02:48:28.277Z,95396.00
2023-05-05T02:49:28.319Z,95396.00
2023-05-05T02:50:28.420Z,95405.00
2023-05-05T02:51:28.456Z,95398.00
2023-05-05T02:52:28.516Z,95405.00
2023-05-05T02:53:28.611Z,95405.00
2023-05-05T02:54:28.650Z,95407.00
2023-05-05T02:55:28.716Z,95398.00
2023-05-05T02:56:28.746Z,95405.00
2023-05-05T02:57:28.775Z,95405.00
2023-05-05T02:58:28.846Z,95398.00
2023-05-05T02:59:28.900Z,95398.00
2023-05-05T03:00:28.995Z,95407.00
2023-05-05T03:01:29.055Z,95405.00
2023-05-05T03:02:29.149Z,95405.00
2023-05-05T03:03:29.231Z,95405.00
2023-05-05T03:04:29.185Z,95405.00
2023-05-05T03:05:29.275Z,95405.00
2023-05-05T03:06:29.289Z,95409.00
2023-05-05T03:07:29.343Z,95409.00
2023-05-05T03:08:29.411Z,95411.00
2023-05-05T03:09:29.445Z,95409.00
2023-05-05T03:10:29.509Z,95409.00
2023-05-05T03:11:29.575Z,95407.00
2023-05-05T03:12:29.665Z,95407.00
2023-05-05T03:13:29.618Z,95407.00
2023-05-05T03:14:32.093Z,95407.00
2023-05-05T03:15:29.727Z,95405.00
2023-05-05T03:16:29.787Z,95405.00
2023-05-05T03:17:29.826Z,95409.00
2023-05-05T03:18:29.821Z,95407.00
2023-05-05T03:19:29.836Z,95409.00
2023-05-05T03:20:29.820Z,95409.00
2023-05-05T03:21:29.856Z,95413.00
2023-05-05T03:22:29.873Z,95407.00
2023-05-05T03:23:30.001Z,95409.00
2023-05-05T03:24:29.943Z,95411.00
2023-05-05T03:25:29.975Z,95409.00
2023-05-05T03:26:29.963Z,95405.00
2023-05-05T03:27:29.970Z,95405.00
2023-05-05T03:28:29.982Z,95407.00
2023-05-05T03:29:30.046Z,95409.00
2023-05-05T03:30:30.072Z,95409.00
2023-05-05T03:31:30.083Z,95407.00
2023-05-05T03:32:30.139Z,95413.00
2023-05-05T03:33:31.095Z,95409.00
2023-05-05T03:34:30.128Z,95411.00
2023-05-05T03:35:30.143Z,95413.00
2023-05-05T03:36:30.192Z,95411.00
2023-05-05T03:37:30.216Z,95409.00
2023-05-05T03:38:30.225Z,95407.00
2023-05-05T03:39:30.255Z,95409.00
2023-05-05T03:40:43.104Z,95411.00
2023-05-05T03:41:31.305Z,95411.00
2023-05-05T03:42:30.317Z,95411.00
2023-05-05T03:43:30.321Z,95411.00
2023-05-05T03:44:30.331Z,95409.00
2023-05-05T03:45:30.416Z,95409.00
2023-05-05T03:46:30.381Z,95411.00
2023-05-05T03:47:30.385Z,95409.00
2023-05-05T03:48:30.453Z,95411.00
2023-05-05T03:49:30.425Z,95411.00
2023-05-05T03:50:30.475Z,95409.00
2023-05-05T03:51:30.469Z,95409.00
2023-05-05T03:52:30.545Z,95409.00
2023-05-05T03:53:30.553Z,95407.00
2023-05-05T03:54:30.549Z,95405.00
2023-05-05T03:55:30.586Z,95407.00
2023-05-05T03:56:30.572Z,95405.00
2023-05-05T03:57:30.633Z,95398.00
2023-05-05T03:58:30.646Z,95405.00
2023-05-05T03:59:30.718Z,95405.00
2023-05-05T04:00:30.768Z,95398.00
2023-05-05T04:01:30.783Z,95405.00
2023-05-05T04:02:30.936Z,95405.00
2023-05-05T04:03:31.136Z,95405.00
2023-05-05T04:04:30.993Z,95407.00
2023-05-05T04:05:31.013Z,95407.00
2023-05-05T04:06:31.034Z,95405.00
2023-05-05T04:07:31.092Z,95405.00
2023-05-05T04:08:31.156Z,95398.00
2023-05-05T04:09:31.154Z,95396.00
2023-05-05T04:10:31.223Z,95405.00
2023-05-05T04:11:31.266Z,95398.00
2023-05-05T04:12:31.309Z,95398.00
2023-05-05T04:13:31.376Z,95405.00
2023-05-05T04:14:31.421Z,95405.00
2023-05-05T04:15:31.454Z,95407.00
2023-05-05T04:16:31.608Z,95407.00
2023-05-05T04:17:31.557Z,95407.00
2023-05-05T04:18:31.585Z,95409.00
2023-05-05T04:19:31.609Z,95409.00
2023-05-05T04:20:31.656Z,95409.00
2023-05-05T04:21:31.719Z,95411.00
2023-05-05T04:22:31.742Z,95411.00
2023-05-05T04:23:31.822Z,95415.00
2023-05-05T04:24:31.874Z,95409.00
2023-05-05T04:25:31.900Z,95411.00
2023-05-05T04:26:31.944Z,95411.00
2023-05-05T04:27:31.951Z,95411.00
2023-05-05T04:28:32.022Z,95407.00
2023-05-05T04:29:32.127Z,95413.00
2023-05-05T04:30:32.096Z,95411.00
2023-05-05T04:31:32.200Z,95413.00
2023-05-05T04:32:32.196Z,95415.00
2023-05-05T04:33:32.231Z,95415.00
2023-05-05T04:34:32.276Z,95417.00
2023-05-05T04:35:32.296Z,95417.00
2023-05-05T04:36:32.366Z,95417.00
2023-05-05T04:37:32.401Z,95417.00
2023-05-05T04:38:32.498Z,95419.00
2023-05-05T04:39:32.515Z,95419.00
2023-05-05T04:40:32.532Z,95421.00
2023-05-05T04:41:32.617Z,95421.00
2023-05-05T04:42:32.756Z,95423.00
2023-05-05T04:43:32.740Z,95427.00
2023-05-05T04:44:32.752Z,95425.00
2023-05-05T04:45:32.768Z,95425.00
2023-05-05T04:46:32.856Z,95429.00
2023-05-05T04:47:32.980Z,95427.00
2023-05-05T04:48:32.909Z,95427.00
2023-05-05T04:49:32.938Z,95429.00
2023-05-05T04:50:32.988Z,95427.00
2023-05-05T04:51:33.011Z,95427.00
2023-05-05T04:52:33.056Z,95423.00
2023-05-05T04:53:33.119Z,95427.00
2023-05-05T04:54:33.150Z,95425.00
2023-05-05T04:55:33.177Z,95427.00
2023-05-05T04:56:33.276Z,95429.00
2023-05-05T04:57:33.324Z,95429.00
2023-05-05T04:58:33.381Z,95431.00
2023-05-05T04:59:33.388Z,95431.00
2023-05-05T05:00:33.469Z,95433.00
2023-05-05T05:01:40.658Z,95435.00
2023-05-05T05:02:33.730Z,95433.00
2023-05-05T05:03:33.716Z,95435.00
2023-05-05T05:04:33.612Z,95433.00
2023-05-05T05:05:33.615Z,95435.00
2023-05-05T05:06:33.621Z,95439.00
2023-05-05T05:07:33.661Z,95433.00
2023-05-05T05:08:33.677Z,95437.00
2023-05-05T05:09:34.735Z,95435.00
2023-05-05T05:10:34.666Z,95437.00
2023-05-05T05:11:33.745Z,95439.00
2023-05-05T05:12:33.827Z,95439.00
2023-05-05T05:13:33.818Z,95441.00
2023-05-05T05:14:33.802Z,95441.00
2023-05-05T05:15:33.824Z,95437.00
2023-05-05T05:16:33.951Z,95437.00
2023-05-05T05:17:33.923Z,95437.00
2023-05-05T05:18:33.890Z,95439.00
2023-05-05T05:19:33.901Z,95437.00
2023-05-05T05:20:33.910Z,95439.00
2023-05-05T05:21:33.966Z,95437.00
2023-05-05T05:22:33.965Z,95437.00
2023-05-05T05:23:33.993Z,95437.00
2023-05-05T05:24:33.987Z,95439.00
2023-05-05T05:25:34.062Z,95439.00
2023-05-05T05:26:34.082Z,95439.00
2023-05-05T05:27:34.163Z,95439.00
2023-05-05T05:28:34.168Z,95437.00
2023-05-05T05:29:34.159Z,95433.00
2023-05-05T05:30:34.232Z,95435.00
2023-05-05T05:31:34.320Z,95435.00
2023-05-05T05:32:34.752Z,95433.00
2023-05-05T05:33:34.332Z,95433.00
2023-05-05T05:34:34.410Z,95433.00
2023-05-05T05:35:34.451Z,95429.00
2023-05-05T05:36:34.582Z,95435.00
2023-05-05T05:37:34.608Z,95433.00
2023-05-05T05:38:34.604Z,95435.00
2023-05-05T05:39:34.648Z,95437.00
2023-05-05T05:40:34.665Z,95441.00
2023-05-05T05:41:34.696Z,95441.00
2023-05-05T05:42:34.748Z,95443.00
2023-05-05T05:43:34.808Z,95441.00
2023-05-05T05:44:34.805Z,95441.00
2023-05-05T05:45:34.889Z,95443.00
2023-05-05T05:46:41.992Z,95439.00
2023-05-05T05:47:35.217Z,95441.00
2023-05-05T05:48:35.071Z,95441.00
2023-05-05T05:49:35.126Z,95443.00
2023-05-05T05:50:35.206Z,95443.00
2023-05-05T05:51:35.185Z,95445.00
2023-05-05T05:52:35.241Z,95443.00
2023-05-05T05:53:35.342Z,95439.00
2023-05-05T05:54:35.337Z,95439.00
2023-05-05T05:55:35.375Z,95441.00
2023-05-05T05:56:35.425Z,95441.00
2023-05-05T05:57:35.475Z,95441.00
2023-05-05T05:58:35.524Z,95441.00
2023-05-05T05:59:35.545Z,95439.00
2023-05-05T06:00:35.575Z,95441.00
2023-05-05T06:01:35.641Z,95439.00
2023-05-05T06:02:35.760Z,95441.00
2023-05-05T06:03:35.879Z,95447.00
2023-05-05T06:04:35.861Z,95441.00
2023-05-05T06:05:35.805Z,95439.00
2023-05-05T06:06:35.837Z,95443.00
2023-05-05T06:07:35.886Z,95439.00
2023-05-05T06:08:35.916Z,95441.00
2023-05-05T06:09:36.001Z,95439.00
2023-05-05T06:10:36.074Z,95441.00
2023-05-05T06:11:36.020Z,95443.00
2023-05-05T06:12:36.113Z,95441.00
2023-05-05T06:13:36.132Z,95441.00
2023-05-05T06:14:36.161Z,95441.00
2023-05-05T06:15:36.198Z,95439.00
2023-05-05T06:16:36.214Z,95439.00
2023-05-05T06:17:36.243Z,95439.00
2023-05-05T06:18:36.279Z,95435.00
2023-05-05T06:19:36.308Z,95437.00
2023-05-05T06:20:36.350Z,95437.00
2023-05-05T06:21:36.370Z,95439.00
2023-05-05T06:22:36.393Z,95439.00
2023-05-05T06:23:36.449Z,95439.00
2023-05-05T06:24:36.434Z,95433.00
2023-05-05T06:25:36.464Z,95435.00
2023-05-05T06:26:36.510Z,95437.00
2023-05-05T06:27:36.535Z,95437.00
2023-05-05T06:28:36.548Z,95437.00
2023-05-05T06:29:36.603Z,95433.00
2023-05-05T06:30:36.643Z,95435.00
2023-05-05T06:31:36.767Z,95433.00
2023-05-05T06:32:36.813Z,95429.00
2023-05-05T06:33:36.821Z,95429.00
2023-05-05T06:34:36.907Z,95425.00
2023-05-05T06:35:36.996Z,95427.00
2023-05-05T06:36:37.216Z,95423.00
2023-05-05T06:37:37.127Z,95425.00
2023-05-05T06:38:37.251Z,95425.00
2023-05-05T06:39:37.316Z,95421.00
2023-05-05T06:40:37.371Z,95423.00
2023-05-05T06:41:37.455Z,95423.00
2023-05-05T06:42:37.508Z,95419.00
2023-05-05T06:43:37.508Z,95417.00
2023-05-05T06:44:37.632Z,95415.00
2023-05-05T06:45:37.642Z,95415.00
2023-05-05T06:46:38.669Z,95417.00
2023-05-05T06:47:37.878Z,95413.00
2023-05-05T06:48:37.859Z,95413.00
2023-05-05T06:49:37.906Z,95409.00
2023-05-05T06:50:38.097Z,95411.00
2023-05-05T06:51:38.061Z,95409.00
2023-05-05T06:52:38.202Z,95413.00
2023-05-05T06:53:38.206Z,95409.00
2023-05-05T06:54:38.298Z,95409.00
2023-05-05T06:55:38.372Z,95407.00
2023-05-05T06:56:38.400Z,95405.00
2023-05-05T06:57:38.742Z,95409.00
2023-05-05T06:58:38.505Z,95407.00
2023-05-05T06:59:38.590Z,95407.00
2023-05-05T07:00:38.691Z,95407.00
2023-05-05T07:01:38.665Z,95413.00
2023-05-05T07:02:38.962Z,95411.00
2023-05-05T07:03:38.885Z,95413.00
2023-05-05T07:04:38.901Z,95409.00
2023-05-05T07:05:38.967Z,95409.00
2023-05-05T07:06:39.002Z,95405.00
2023-05-05T07:07:39.057Z,95405.00
2023-05-05T07:08:39.104Z,95405.00
2023-05-05T07:09:39.182Z,95405.00
2023-05-05T07:10:39.301Z,95398.00
2023-05-05T07:11:39.244Z,95398.00
2023-05-05T07:12:39.455Z,95396.00
2023-05-05T07:13:39.328Z,95394.00
2023-05-05T07:14:39.403Z,95390.00
2023-05-05T07:15:39.451Z,95392.00
2023-05-05T07:16:39.541Z,95392.00
2023-05-05T07:17:39.653Z,95390.00
2023-05-05T07:18:39.542Z,95386.00
2023-05-05T07:19:39.590Z,95384.00
2023-05-05T07:20:39.589Z,95386.00
2023-05-05T07:21:39.708Z,95382.00
2023-05-05T07:22:39.689Z,95380.00
2023-05-05T07:23:39.745Z,95378.00
2023-05-05T07:24:39.787Z,95380.00
2023-05-05T07:25:39.833Z,95378.00
2023-05-05T07:26:39.868Z,95376.00
2023-05-05T07:27:39.864Z,95374.00
2023-05-05T07:28:39.876Z,95376.00
2023-05-05T07:29:39.993Z,95376.00
2023-05-05T07:30:40.006Z,95374.00
2023-05-05T07:31:40.046Z,95374.00
2023-05-05T07:32:40.133Z,95376.00
2023-05-05T07:33:40.251Z,95372.00
2023-05-05T07:34:40.209Z,95370.00
2023-05-05T07:35:40.235Z,95370.00
2023-05-05T07:36:40.296Z,95370.00
2023-05-05T07:37:40.385Z,95366.00
2023-05-05T07:38:40.421Z,95362.00
2023-05-05T07:39:40.464Z,95364.00
2023-05-05T07:40:40.502Z,95362.00
2023-05-05T07:41:40.574Z,95360.00
2023-05-05T07:42:40.619Z,95358.00
2023-05-05T07:43:41.715Z,95360.00
2023-05-05T07:44:41.057Z,95360.00
2023-05-05T07:45:41.151Z,95358.00
2023-05-05T07:46:40.833Z,95356.00
2023-05-05T07:47:40.903Z,95352.00
2023-05-05T07:48:41.468Z,95354.00
2023-05-05T07:49:41.173Z,95352.00
2023-05-05T07:50:41.099Z,95351.00
2023-05-05T07:51:41.127Z,95349.00
2023-05-05T07:52:46.559Z,95345.00
2023-05-05T07:53:42.211Z,95345.00
2023-05-05T07:54:41.206Z,95341.00
2023-05-05T07:55:41.231Z,95341.00
2023-05-05T07:56:41.231Z,95339.00
2023-05-05T07:57:41.245Z,95339.00
2023-05-05T07:58:41.251Z,95339.00
2023-05-05T07:59:41.230Z,95339.00
2023-05-05T08:00:41.285Z,95333.00
2023-05-05T08:01:41.286Z,95333.00
2023-05-05T08:02:41.881Z,95333.00
2023-05-05T08:03:41.523Z,95331.00
2023-05-05T08:04:41.417Z,95333.00
2023-05-05T08:05:41.494Z,95331.00
2023-05-05T08:06:41.408Z,95333.00
2023-05-05T08:07:41.791Z,95335.00
2023-05-05T08:08:41.571Z,95335.00
2023-05-05T08:09:41.583Z,95335.00
2023-05-05T08:10:41.710Z,95333.00
2023-05-05T08:11:41.650Z,95329.00
2023-05-05T08:12:41.731Z,95327.00
2023-05-05T08:13:41.766Z,95329.00
2023-05-05T08:14:41.783Z,95331.00
2023-05-05T08:15:41.867Z,95325.00
2023-05-05T08:16:41.991Z,95323.00
2023-05-05T08:17:41.932Z,95323.00
2023-05-05T08:18:41.969Z,95319.00
2023-05-05T08:19:42.032Z,95321.00
2023-05-05T08:20:42.079Z,95315.00
2023-05-05T08:21:42.174Z,95321.00
2023-05-05T08:22:42.115Z,95313.00
2023-05-05T08:23:42.148Z,95319.00
2023-05-05T08:24:42.142Z,95317.00
2023-05-05T08:25:42.190Z,95313.00
2023-05-05T08:26:42.210Z,95313.00
2023-05-05T08:27:42.300Z,95313.00
2023-05-05T08:28:42.274Z,95309.00
2023-05-05T08:29:42.309Z,95309.00
2023-05-05T08:30:42.355Z,95307.00
2023-05-05T08:31:42.377Z,95307.00
2023-05-05T08:32:42.790Z,95305.00
2023-05-05T08:33:42.449Z,95305.00
2023-05-05T08:34:42.475Z,95301.00
2023-05-05T08:35:42.467Z,95301.00
2023-05-05T08:36:42.480Z,95298.00
2023-05-05T08:37:43.042Z,95296.00
2023-05-05T08:38:42.580Z,95294.00
2023-05-05T08:39:42.674Z,95290.00
2023-05-05T08:40:42.665Z,95290.00
2023-05-05T08:41:42.741Z,95286.00
2023-05-05T08:42:43.299Z,95286.00
2023-05-05T08:43:42.848Z,95290.00
2023-05-05T08:44:42.857Z,95288.00
2023-05-05T08:45:42.910Z,95284.00
2023-05-05T08:46:42.985Z,95286.00
2023-05-05T08:47:43.123Z,95282.00
2023-05-05T08:48:43.089Z,95280.00
2023-05-05T08:49:43.154Z,95280.00
2023-05-05T08:50:43.198Z,95278.00
2023-05-05T08:51:43.228Z,95274.00
2023-05-05T08:52:43.477Z,95274.00
2023-05-05T08:53:43.881Z,95274.00
2023-05-05T08:54:43.423Z,95274.00
2023-05-05T08:55:43.474Z,95272.00
2023-05-05T08:56:43.587Z,95274.00
2023-05-05T08:57:43.581Z,95274.00
2023-05-05T08:58:43.615Z,95274.00
2023-05-05T08:59:43.663Z,95272.00
2023-05-05T09:00:43.789Z,95270.00
2023-05-05T09:01:43.788Z,95270.00
2023-05-05T09:02:44.089Z,95266.00
2023-05-05T09:03:43.890Z,95264.00
2023-05-05T09:04:44.014Z,95264.00
2023-05-05T09:05:44.003Z,95258.00
2023-05-05T09:06:44.066Z,95262.00
2023-05-05T09:07:44.252Z,95260.00
2023-05-05T09:08:44.268Z,95256.00
2023-05-05T09:09:44.262Z,95258.00
2023-05-05T09:10:44.245Z,95254.00
2023-05-05T09:11:44.257Z,95254.00
2023-05-05T09:12:44.314Z,95253.00
2023-05-05T09:13:45.312Z,95251.00
2023-05-05T09:14:44.404Z,95256.00
2023-05-05T09:15:44.420Z,95251.00
2023-05-05T09:16:44.432Z,95249.00
2023-05-05T09:17:44.585Z,95251.00
2023-05-05T09:18:44.461Z,95249.00
2023-05-05T09:19:44.542Z,95247.00
2023-05-05T09:20:44.497Z,95241.00
2023-05-05T09:21:45.287Z,95243.00
2023-05-05T09:22:44.577Z,95239.00
2023-05-05T09:23:44.554Z,95237.00
2023-05-05T09:24:44.582Z,95237.00
2023-05-05T09:25:44.710Z,95237.00
2023-05-05T09:26:44.695Z,95231.00
2023-05-05T09:27:44.594Z,95231.00
2023-05-05T09:28:44.658Z,95231.00
2023-05-05T09:29:44.695Z,95231.00
2023-05-05T09:30:44.737Z,95229.00
2023-05-05T09:31:44.737Z,95227.00
2023-05-05T09:32:44.917Z,95223.00
2023-05-05T09:33:44.816Z,95223.00
2023-05-05T09:34:44.843Z,95219.00
2023-05-05T09:35:44.801Z,95221.00
2023-05-05T09:36:45.013Z,95215.00
2023-05-05T09:37:45.211Z,95215.00
2023-05-05T09:38:45.066Z,95213.00
2023-05-05T09:39:44.893Z,95211.00
2023-05-05T09:40:44.912Z,95213.00
2023-05-05T09:41:44.980Z,95211.00
2023-05-05T09:42:45.071Z,95209.00
2023-05-05T09:43:45.307Z,95205.00
2023-05-05T09:44:44.973Z,95203.00
2023-05-05T09:45:45.013Z,95205.00
2023-05-05T09:46:45.039Z,95203.00
2023-05-05T09:47:45.052Z,95202.00
2023-05-05T09:48:45.024Z,95202.00
2023-05-05T09:49:45.071Z,95200.00
2023-05-05T09:50:45.069Z,95198.00
2023-05-05T09:51:45.123Z,95200.00
2023-05-05T09:52:45.795Z,95196.00
2023-05-05T09:53:45.709Z,95196.00
2023-05-05T09:54:45.157Z,95192.00
2023-05-05T09:55:45.184Z,95194.00
2023-05-05T09:56:45.233Z,95196.00
2023-05-05T09:57:45.424Z,95194.00
2023-05-05T09:58:45.276Z,95190.00
2023-05-05T09:59:45.313Z,95190.00
2023-05-05T10:00:45.341Z,95190.00
2023-05-05T10:01:45.398Z,95190.00
2023-05-05T10:02:45.436Z,95184.00
2023-05-05T10:03:45.402Z,95184.00
2023-05-05T10:04:45.431Z,95182.00
2023-05-05T10:05:45.444Z,95182.00
2023-05-05T10:06:45.467Z,95180.00
2023-05-05T10:07:45.449Z,95180.00
2023-05-05T10:08:45.532Z,95182.00
2023-05-05T10:09:45.503Z,95180.00
2023-05-05T10:10:45.552Z,95178.00
2023-05-05T10:11:45.588Z,95182.00
2023-05-05T10:12:45.580Z,95178.00
2023-05-05T10:13:45.780Z,95178.00
2023-05-05T10:14:45.617Z,95174.00
2023-05-05T10:15:45.713Z,95172.00
2023-05-05T10:16:45.788Z,95172.00
2023-05-05T10:17:57.842Z,95166.00
2023-05-05T10:18:46.700Z,95166.00
2023-05-05T10:19:45.646Z,95164.00
2023-05-05T10:20:45.667Z,95158.00
2023-05-05T10:21:45.657Z,95158.00
2023-05-05T10:22:45.630Z,95158.00
2023-05-05T10:23:45.643Z,95158.00
2023-05-05T10:24:45.625Z,95158.00
2023-05-05T10:25:45.606Z,95156.00
2023-05-05T10:26:45.629Z,95156.00
2023-05-05T10:27:45.622Z,95156.00
2023-05-05T10:28:45.822Z,95154.00
2023-05-05T10:29:45.630Z,95152.00
2023-05-05T10:30:45.631Z,95151.00
2023-05-05T10:31:45.635Z,95151.00
2023-05-05T10:32:59.380Z,95141.00
2023-05-05T10:33:46.782Z,95137.00
2023-05-05T10:34:45.654Z,95133.00
2023-05-05T10:35:45.623Z,95129.00
2023-05-05T10:36:45.605Z,95131.00
2023-05-05T10:37:45.641Z,95129.00
2023-05-05T10:38:45.805Z,95125.00
2023-05-05T10:39:45.616Z,95121.00
2023-05-05T10:40:45.588Z,95119.00
2023-05-05T10:41:45.596Z,95119.00
2023-05-05T10:42:45.566Z,95117.00
2023-05-05T10:43:45.806Z,95113.00
2023-05-05T10:44:45.589Z,95113.00
2023-05-05T10:45:45.685Z,95111.00
2023-05-05T10:46:45.623Z,95111.00
2023-05-05T10:47:45.600Z,95103.00
2023-05-05T10:48:45.900Z,95105.00
2023-05-05T10:49:45.573Z,95102.00
2023-05-05T10:50:45.590Z,95102.00
2023-05-05T10:51:45.560Z,95098.00
2023-05-05T10:52:45.620Z,95098.00
2023-05-05T10:53:45.665Z,95100.00
2023-05-05T10:54:45.823Z,95096.00
2023-05-05T10:55:45.664Z,95094.00
2023-05-05T10:56:45.703Z,95092.00
2023-05-05T10:57:45.719Z,95092.00
2023-05-05T10:58:58.834Z,95090.00
2023-05-05T10:59:46.747Z,95088.00
2023-05-05T11:00:45.779Z,95088.00
2023-05-05T11:01:45.734Z,95086.00
2023-05-05T11:02:45.759Z,95082.00
2023-05-05T11:03:45.855Z,95082.00
2023-05-05T11:04:45.759Z,95078.00
2023-05-05T11:05:45.749Z,95078.00
2023-05-05T11:06:45.798Z,95076.00
2023-05-05T11:07:45.806Z,95076.00
2023-05-05T11:08:45.781Z,95074.00
2023-05-05T11:09:45.786Z,95072.00
2023-05-05T11:10:45.774Z,95068.00
2023-05-05T11:11:45.805Z,95062.00
2023-05-05T11:12:45.844Z,95064.00
2023-05-05T11:13:45.756Z,95056.00
2023-05-05T11:14:45.797Z,95052.00
2023-05-05T11:15:45.774Z,95050.00
2023-05-05T11:16:45.905Z,95048.00
2023-05-05T11:17:45.844Z,95047.00
2023-05-05T11:18:45.785Z,95045.00
2023-05-05T11:19:45.820Z,95045.00
2023-05-05T11:20:45.796Z,95043.00
2023-05-05T11:21:45.833Z,95041.00
2023-05-05T11:22:45.869Z,95041.00
2023-05-05T11:23:45.893Z,95039.00
2023-05-05T11:24:45.887Z,95037.00
2023-05-05T11:25:45.952Z,95035.00
2023-05-05T11:26:45.960Z,95033.00
2023-05-05T11:27:46.028Z,95033.00
2023-05-05T11:28:46.069Z,95031.00
2023-05-05T11:29:46.081Z,95027.00
2023-05-05T11:30:46.179Z,95033.00
2023-05-05T11:31:46.181Z,95027.00
2023-05-05T11:32:46.299Z,95029.00
2023-05-05T11:33:46.308Z,95027.00
2023-05-05T11:34:46.348Z,95025.00
2023-05-05T11:35:46.324Z,95023.00
2023-05-05T11:36:46.414Z,95021.00
2023-05-05T11:37:46.515Z,95019.00
2023-05-05T11:38:46.524Z,95017.00
2023-05-05T11:39:46.623Z,95017.00
2023-05-05T11:40:46.662Z,95013.00
2023-05-05T11:41:46.723Z,95013.00
2023-05-05T11:42:46.760Z,95013.00
2023-05-05T11:43:46.789Z,95003.00
2023-05-05T11:44:46.852Z,95005.00